sensor_id;sensor_type;location;lat;lon;timestamp;P1;durP1;ratioP1;P2;durP2;ratioP2
18274;SDS011;19470;49.322;7.218;2024-01-30T00:01:33;9.80;;;5.20;;
18274;SDS011;19470;49.322;7.218;2024-01-30T00:04:01;9.02;;;4.80;;
18274;SDS011;19470;49.322;7.218;2024-01-30T00:06:27;6.43;;;4.30;;
18274;SDS011;19470;49.322;7.218;2024-01-30T00:08:53;7.10;;;4.35;;
18274;SDS011;19470;49.322;7.218;2024-01-30T00:11:19;10.60;;;4.28;;
18274;SDS011;19470;49.322;7.218;2024-01-30T00:13:46;7.22;;;4.10;;
18274;SDS011;19470;49.322;7.218;2024-01-30T00:16:19;8.85;;;4.65;;
18274;SDS011;19470;49.322;7.218;2024-01-30T00:18:46;7.47;;;4.40;;
18274;SDS011;19470;49.322;7.218;2024-01-30T00:21:14;7.00;;;4.45;;
18274;SDS011;19470;49.322;7.218;2024-01-30T00:23:41;7.63;;;4.78;;
18274;SDS011;19470;49.322;7.218;2024-01-30T00:26:07;9.20;;;4.72;;
18274;SDS011;19470;49.322;7.218;2024-01-30T00:28:33;8.30;;;4.55;;
18274;SDS011;19470;49.322;7.218;2024-01-30T00:31:00;8.38;;;5.13;;
18274;SDS011;19470;49.322;7.218;2024-01-30T00:33:26;9.38;;;5.43;;
18274;SDS011;19470;49.322;7.218;2024-01-30T00:35:53;8.23;;;4.57;;
18274;SDS011;19470;49.322;7.218;2024-01-30T00:38:21;9.77;;;5.00;;
18274;SDS011;19470;49.322;7.218;2024-01-30T00:40:47;13.38;;;5.80;;
18274;SDS011;19470;49.322;7.218;2024-01-30T00:43:14;9.68;;;5.60;;
18274;SDS011;19470;49.322;7.218;2024-01-30T00:45:41;9.32;;;6.15;;
18274;SDS011;19470;49.322;7.218;2024-01-30T00:48:07;9.60;;;5.45;;
18274;SDS011;19470;49.322;7.218;2024-01-30T00:50:34;7.85;;;5.10;;
18274;SDS011;19470;49.322;7.218;2024-01-30T00:53:00;7.00;;;4.93;;
18274;SDS011;19470;49.322;7.218;2024-01-30T00:55:29;9.75;;;5.05;;
18274;SDS011;19470;49.322;7.218;2024-01-30T00:57:56;9.25;;;4.85;;
18274;SDS011;19470;49.322;7.218;2024-01-30T01:00:22;10.27;;;5.10;;
18274;SDS011;19470;49.322;7.218;2024-01-30T01:02:53;9.13;;;5.20;;
18274;SDS011;19470;49.322;7.218;2024-01-30T01:05:20;8.32;;;5.18;;
18274;SDS011;19470;49.322;7.218;2024-01-30T01:07:46;7.32;;;5.00;;
18274;SDS011;19470;49.322;7.218;2024-01-30T01:10:13;7.57;;;4.55;;
18274;SDS011;19470;49.322;7.218;2024-01-30T01:12:42;8.32;;;4.70;;
18274;SDS011;19470;49.322;7.218;2024-01-30T01:15:09;10.23;;;5.00;;
18274;SDS011;19470;49.322;7.218;2024-01-30T01:17:36;8.52;;;4.70;;
18274;SDS011;19470;49.322;7.218;2024-01-30T01:20:03;6.85;;;4.75;;
18274;SDS011;19470;49.322;7.218;2024-01-30T01:22:31;6.78;;;4.57;;
18274;SDS011;19470;49.322;7.218;2024-01-30T01:25:17;8.60;;;4.97;;
18274;SDS011;19470;49.322;7.218;2024-01-30T01:27:45;7.88;;;5.00;;
18274;SDS011;19470;49.322;7.218;2024-01-30T01:30:16;10.02;;;5.13;;
18274;SDS011;19470;49.322;7.218;2024-01-30T01:32:46;8.30;;;5.27;;
18274;SDS011;19470;49.322;7.218;2024-01-30T01:35:16;17.55;;;6.53;;
18274;SDS011;19470;49.322;7.218;2024-01-30T01:37:42;8.00;;;5.32;;
18274;SDS011;19470;49.322;7.218;2024-01-30T01:40:09;9.97;;;5.80;;
18274;SDS011;19470;49.322;7.218;2024-01-30T01:42:35;8.50;;;5.00;;
18274;SDS011;19470;49.322;7.218;2024-01-30T01:45:04;12.17;;;5.37;;
18274;SDS011;19470;49.322;7.218;2024-01-30T01:47:31;7.57;;;5.43;;
18274;SDS011;19470;49.322;7.218;2024-01-30T01:49:57;8.57;;;5.47;;
18274;SDS011;19470;49.322;7.218;2024-01-30T01:52:23;8.77;;;5.18;;
18274;SDS011;19470;49.322;7.218;2024-01-30T01:54:50;11.10;;;5.80;;
18274;SDS011;19470;49.322;7.218;2024-01-30T01:57:16;8.97;;;5.53;;
18274;SDS011;19470;49.322;7.218;2024-01-30T01:59:43;8.98;;;5.50;;
18274;SDS011;19470;49.322;7.218;2024-01-30T02:02:10;8.63;;;5.43;;
18274;SDS011;19470;49.322;7.218;2024-01-30T02:04:38;11.10;;;5.63;;
18274;SDS011;19470;49.322;7.218;2024-01-30T02:07:05;10.32;;;5.97;;
18274;SDS011;19470;49.322;7.218;2024-01-30T02:09:32;11.25;;;6.03;;
18274;SDS011;19470;49.322;7.218;2024-01-30T02:11:58;9.03;;;5.87;;
18274;SDS011;19470;49.322;7.218;2024-01-30T02:14:25;11.00;;;6.17;;
18274;SDS011;19470;49.322;7.218;2024-01-30T02:16:52;12.93;;;6.20;;
18274;SDS011;19470;49.322;7.218;2024-01-30T02:19:19;9.77;;;6.17;;
18274;SDS011;19470;49.322;7.218;2024-01-30T02:21:47;10.10;;;6.13;;
18274;SDS011;19470;49.322;7.218;2024-01-30T02:24:14;9.40;;;5.35;;
18274;SDS011;19470;49.322;7.218;2024-01-30T02:26:40;10.57;;;6.03;;
18274;SDS011;19470;49.322;7.218;2024-01-30T02:29:07;11.60;;;6.47;;
18274;SDS011;19470;49.322;7.218;2024-01-30T02:31:33;9.17;;;6.40;;
18274;SDS011;19470;49.322;7.218;2024-01-30T02:34:00;9.57;;;6.37;;
18274;SDS011;19470;49.322;7.218;2024-01-30T02:36:26;10.10;;;6.20;;
18274;SDS011;19470;49.322;7.218;2024-01-30T02:38:54;10.53;;;5.97;;
18274;SDS011;19470;49.322;7.218;2024-01-30T02:41:20;12.07;;;6.23;;
18274;SDS011;19470;49.322;7.218;2024-01-30T02:43:47;13.23;;;6.77;;
18274;SDS011;19470;49.322;7.218;2024-01-30T02:46:13;14.27;;;7.20;;
18274;SDS011;19470;49.322;7.218;2024-01-30T02:48:40;10.47;;;6.77;;
18274;SDS011;19470;49.322;7.218;2024-01-30T02:51:06;12.13;;;7.50;;
18274;SDS011;19470;49.322;7.218;2024-01-30T02:53:33;14.53;;;7.87;;
18274;SDS011;19470;49.322;7.218;2024-01-30T02:56:01;14.17;;;8.73;;
18274;SDS011;19470;49.322;7.218;2024-01-30T02:58:28;16.33;;;8.82;;
18274;SDS011;19470;49.322;7.218;2024-01-30T03:00:54;14.87;;;9.23;;
18274;SDS011;19470;49.322;7.218;2024-01-30T03:03:21;13.10;;;9.07;;
18274;SDS011;19470;49.322;7.218;2024-01-30T03:05:47;13.90;;;8.40;;
18274;SDS011;19470;49.322;7.218;2024-01-30T03:08:14;15.80;;;8.80;;
18274;SDS011;19470;49.322;7.218;2024-01-30T03:10:40;13.60;;;8.40;;
18274;SDS011;19470;49.322;7.218;2024-01-30T03:13:08;18.87;;;9.23;;
18274;SDS011;19470;49.322;7.218;2024-01-30T03:15:34;15.30;;;8.87;;
18274;SDS011;19470;49.322;7.218;2024-01-30T03:18:01;17.47;;;9.30;;
18274;SDS011;19470;49.322;7.218;2024-01-30T03:20:28;18.33;;;10.13;;
18274;SDS011;19470;49.322;7.218;2024-01-30T03:22:55;17.88;;;8.93;;
18274;SDS011;19470;49.322;7.218;2024-01-30T03:25:22;16.53;;;9.60;;
18274;SDS011;19470;49.322;7.218;2024-01-30T03:27:48;16.50;;;9.03;;
18274;SDS011;19470;49.322;7.218;2024-01-30T03:30:16;20.90;;;9.67;;
18274;SDS011;19470;49.322;7.218;2024-01-30T03:32:42;17.57;;;9.20;;
18274;SDS011;19470;49.322;7.218;2024-01-30T03:35:09;14.40;;;9.40;;
18274;SDS011;19470;49.322;7.218;2024-01-30T03:37:36;16.47;;;8.90;;
18274;SDS011;19470;49.322;7.218;2024-01-30T03:40:02;17.37;;;9.43;;
18274;SDS011;19470;49.322;7.218;2024-01-30T03:42:29;16.80;;;9.80;;
18274;SDS011;19470;49.322;7.218;2024-01-30T03:44:56;19.20;;;11.50;;
18274;SDS011;19470;49.322;7.218;2024-01-30T03:47:24;22.07;;;11.03;;
18274;SDS011;19470;49.322;7.218;2024-01-30T03:49:50;20.60;;;10.67;;
18274;SDS011;19470;49.322;7.218;2024-01-30T03:52:17;21.93;;;10.77;;
18274;SDS011;19470;49.322;7.218;2024-01-30T03:54:43;18.37;;;10.43;;
18274;SDS011;19470;49.322;7.218;2024-01-30T03:57:09;15.10;;;9.57;;
18274;SDS011;19470;49.322;7.218;2024-01-30T03:59:36;19.80;;;10.90;;
18274;SDS011;19470;49.322;7.218;2024-01-30T04:02:03;17.20;;;10.13;;
18274;SDS011;19470;49.322;7.218;2024-01-30T04:04:30;25.07;;;11.00;;
18274;SDS011;19470;49.322;7.218;2024-01-30T04:06:57;19.70;;;9.67;;
18274;SDS011;19470;49.322;7.218;2024-01-30T04:09:23;17.87;;;10.27;;
18274;SDS011;19470;49.322;7.218;2024-01-30T04:11:51;17.93;;;10.00;;
18274;SDS011;19470;49.322;7.218;2024-01-30T04:14:17;16.20;;;10.10;;
18274;SDS011;19470;49.322;7.218;2024-01-30T04:16:44;18.13;;;10.40;;
18274;SDS011;19470;49.322;7.218;2024-01-30T04:19:10;22.13;;;11.37;;
18274;SDS011;19470;49.322;7.218;2024-01-30T04:21:41;18.10;;;10.70;;
18274;SDS011;19470;49.322;7.218;2024-01-30T04:24:07;18.23;;;10.37;;
18274;SDS011;19470;49.322;7.218;2024-01-30T04:26:34;18.60;;;10.23;;
18274;SDS011;19470;49.322;7.218;2024-01-30T04:29:01;19.60;;;10.47;;
18274;SDS011;19470;49.322;7.218;2024-01-30T04:31:28;18.73;;;11.00;;
18274;SDS011;19470;49.322;7.218;2024-01-30T04:33:54;21.77;;;11.63;;
18274;SDS011;19470;49.322;7.218;2024-01-30T04:36:21;19.80;;;11.73;;
18274;SDS011;19470;49.322;7.218;2024-01-30T04:38:48;26.43;;;11.73;;
18274;SDS011;19470;49.322;7.218;2024-01-30T04:41:27;19.43;;;11.40;;
18274;SDS011;19470;49.322;7.218;2024-01-30T04:44:09;21.23;;;11.40;;
18274;SDS011;19470;49.322;7.218;2024-01-30T04:46:37;21.43;;;10.40;;
18274;SDS011;19470;49.322;7.218;2024-01-30T04:49:51;19.67;;;10.37;;
18274;SDS011;19470;49.322;7.218;2024-01-30T04:52:51;18.43;;;9.07;;
18274;SDS011;19470;49.322;7.218;2024-01-30T04:55:24;18.63;;;10.43;;
18274;SDS011;19470;49.322;7.218;2024-01-30T04:59:30;21.03;;;10.93;;
18274;SDS011;19470;49.322;7.218;2024-01-30T05:01:37;18.40;;;10.37;;
18274;SDS011;19470;49.322;7.218;2024-01-30T05:04:07;15.20;;;9.93;;
18274;SDS011;19470;49.322;7.218;2024-01-30T05:06:36;21.03;;;10.47;;
18274;SDS011;19470;49.322;7.218;2024-01-30T05:09:22;15.77;;;9.73;;
18274;SDS011;19470;49.322;7.218;2024-01-30T05:11:52;19.37;;;10.80;;
18274;SDS011;19470;49.322;7.218;2024-01-30T05:14:22;21.67;;;11.10;;
18274;SDS011;19470;49.322;7.218;2024-01-30T05:16:57;19.57;;;10.73;;
18274;SDS011;19470;49.322;7.218;2024-01-30T05:19:30;18.77;;;9.73;;
18274;SDS011;19470;49.322;7.218;2024-01-30T05:21:59;17.87;;;9.73;;
18274;SDS011;19470;49.322;7.218;2024-01-30T05:24:25;20.93;;;10.30;;
18274;SDS011;19470;49.322;7.218;2024-01-30T05:26:53;18.87;;;10.47;;
18274;SDS011;19470;49.322;7.218;2024-01-30T05:29:19;18.13;;;9.93;;
18274;SDS011;19470;49.322;7.218;2024-01-30T05:31:46;20.47;;;11.43;;
18274;SDS011;19470;49.322;7.218;2024-01-30T05:34:12;21.38;;;11.20;;
18274;SDS011;19470;49.322;7.218;2024-01-30T05:36:43;19.17;;;11.17;;
18274;SDS011;19470;49.322;7.218;2024-01-30T05:39:26;18.27;;;11.27;;
18274;SDS011;19470;49.322;7.218;2024-01-30T05:41:54;19.73;;;10.63;;
18274;SDS011;19470;49.322;7.218;2024-01-30T05:44:20;19.77;;;10.10;;
18274;SDS011;19470;49.322;7.218;2024-01-30T05:46:46;21.00;;;11.17;;
18274;SDS011;19470;49.322;7.218;2024-01-30T05:49:13;18.70;;;10.47;;
18274;SDS011;19470;49.322;7.218;2024-01-30T05:51:45;17.03;;;10.80;;
18274;SDS011;19470;49.322;7.218;2024-01-30T05:54:29;20.67;;;11.07;;
18274;SDS011;19470;49.322;7.218;2024-01-30T05:57:01;19.67;;;11.30;;
18274;SDS011;19470;49.322;7.218;2024-01-30T05:59:31;19.27;;;11.23;;
18274;SDS011;19470;49.322;7.218;2024-01-30T06:01:57;94.00;;;40.27;;
18274;SDS011;19470;49.322;7.218;2024-01-30T06:04:24;21.13;;;12.17;;
18274;SDS011;19470;49.322;7.218;2024-01-30T06:06:56;20.97;;;12.30;;
18274;SDS011;19470;49.322;7.218;2024-01-30T06:09:22;22.87;;;12.57;;
18274;SDS011;19470;49.322;7.218;2024-01-30T06:11:51;26.30;;;13.33;;
18274;SDS011;19470;49.322;7.218;2024-01-30T06:14:19;21.27;;;11.57;;
18274;SDS011;19470;49.322;7.218;2024-01-30T06:16:45;20.27;;;11.57;;
18274;SDS011;19470;49.322;7.218;2024-01-30T06:19:12;20.67;;;11.10;;
18274;SDS011;19470;49.322;7.218;2024-01-30T06:21:38;21.13;;;11.10;;
18274;SDS011;19470;49.322;7.218;2024-01-30T06:24:05;20.70;;;10.83;;
18274;SDS011;19470;49.322;7.218;2024-01-30T06:26:31;83.00;;;36.90;;
18274;SDS011;19470;49.322;7.218;2024-01-30T06:28:58;30.60;;;16.40;;
18274;SDS011;19470;49.322;7.218;2024-01-30T06:31:26;46.47;;;26.17;;
18274;SDS011;19470;49.322;7.218;2024-01-30T06:33:52;19.33;;;11.43;;
18274;SDS011;19470;49.322;7.218;2024-01-30T06:36:19;18.33;;;11.32;;
18274;SDS011;19470;49.322;7.218;2024-01-30T06:38:45;19.33;;;11.57;;
18274;SDS011;19470;49.322;7.218;2024-01-30T06:41:17;18.07;;;11.20;;
18274;SDS011;19470;49.322;7.218;2024-01-30T06:43:44;21.20;;;12.10;;
18274;SDS011;19470;49.322;7.218;2024-01-30T06:46:11;91.30;;;38.63;;
18274;SDS011;19470;49.322;7.218;2024-01-30T06:48:39;24.63;;;13.47;;
18274;SDS011;19470;49.322;7.218;2024-01-30T06:51:06;21.70;;;11.80;;
18274;SDS011;19470;49.322;7.218;2024-01-30T06:53:32;19.23;;;11.53;;
18274;SDS011;19470;49.322;7.218;2024-01-30T06:55:59;21.10;;;11.60;;
18274;SDS011;19470;49.322;7.218;2024-01-30T06:58:31;19.23;;;11.40;;
18274;SDS011;19470;49.322;7.218;2024-01-30T07:01:04;25.47;;;12.60;;
18274;SDS011;19470;49.322;7.218;2024-01-30T07:03:43;22.38;;;12.60;;
18274;SDS011;19470;49.322;7.218;2024-01-30T07:06:09;23.10;;;12.93;;
18274;SDS011;19470;49.322;7.218;2024-01-30T07:08:37;23.27;;;12.70;;
18274;SDS011;19470;49.322;7.218;2024-01-30T07:11:03;21.65;;;12.48;;
18274;SDS011;19470;49.322;7.218;2024-01-30T07:13:30;21.10;;;12.33;;
18274;SDS011;19470;49.322;7.218;2024-01-30T07:15:57;25.07;;;12.90;;
18274;SDS011;19470;49.322;7.218;2024-01-30T07:18:23;20.90;;;12.07;;
18274;SDS011;19470;49.322;7.218;2024-01-30T07:20:51;20.60;;;11.87;;
18274;SDS011;19470;49.322;7.218;2024-01-30T07:23:18;20.40;;;11.47;;
18274;SDS011;19470;49.322;7.218;2024-01-30T07:25:45;27.50;;;15.40;;
18274;SDS011;19470;49.322;7.218;2024-01-30T07:28:13;65.07;;;30.03;;
18274;SDS011;19470;49.322;7.218;2024-01-30T07:30:41;21.35;;;12.10;;
18274;SDS011;19470;49.322;7.218;2024-01-30T07:33:08;19.88;;;11.23;;
18274;SDS011;19470;49.322;7.218;2024-01-30T07:35:35;19.10;;;11.40;;
18274;SDS011;19470;49.322;7.218;2024-01-30T07:38:03;17.07;;;9.70;;
18274;SDS011;19470;49.322;7.218;2024-01-30T07:40:30;17.30;;;10.18;;
18274;SDS011;19470;49.322;7.218;2024-01-30T07:42:58;19.07;;;10.90;;
18274;SDS011;19470;49.322;7.218;2024-01-30T07:45:28;24.37;;;13.13;;
18274;SDS011;19470;49.322;7.218;2024-01-30T07:47:57;20.92;;;11.48;;
18274;SDS011;19470;49.322;7.218;2024-01-30T07:50:24;21.97;;;12.07;;
18274;SDS011;19470;49.322;7.218;2024-01-30T07:52:51;20.88;;;11.77;;
18274;SDS011;19470;49.322;7.218;2024-01-30T07:55:23;20.60;;;12.52;;
18274;SDS011;19470;49.322;7.218;2024-01-30T07:58:03;20.97;;;11.63;;
18274;SDS011;19470;49.322;7.218;2024-01-30T08:00:37;19.30;;;10.82;;
18274;SDS011;19470;49.322;7.218;2024-01-30T08:03:40;18.95;;;10.55;;
18274;SDS011;19470;49.322;7.218;2024-01-30T08:06:50;19.60;;;10.60;;
18274;SDS011;19470;49.322;7.218;2024-01-30T08:09:17;20.50;;;12.65;;
18274;SDS011;19470;49.322;7.218;2024-01-30T08:14:34;25.63;;;11.70;;
18274;SDS011;19470;49.322;7.218;2024-01-30T08:17:00;20.00;;;10.82;;
18274;SDS011;19470;49.322;7.218;2024-01-30T08:19:27;21.40;;;10.95;;
18274;SDS011;19470;49.322;7.218;2024-01-30T08:21:53;20.13;;;11.63;;
18274;SDS011;19470;49.322;7.218;2024-01-30T08:26:37;20.55;;;11.27;;
18274;SDS011;19470;49.322;7.218;2024-01-30T08:28:01;20.83;;;12.20;;
18274;SDS011;19470;49.322;7.218;2024-01-30T08:30:27;21.80;;;11.68;;
18274;SDS011;19470;49.322;7.218;2024-01-30T08:32:53;26.25;;;14.15;;
18274;SDS011;19470;49.322;7.218;2024-01-30T08:35:20;21.48;;;12.60;;
18274;SDS011;19470;49.322;7.218;2024-01-30T08:37:46;21.17;;;13.35;;
18274;SDS011;19470;49.322;7.218;2024-01-30T08:40:13;22.27;;;13.50;;
18274;SDS011;19470;49.322;7.218;2024-01-30T08:42:39;19.63;;;11.75;;
18274;SDS011;19470;49.322;7.218;2024-01-30T08:45:06;26.30;;;13.23;;
18274;SDS011;19470;49.322;7.218;2024-01-30T08:47:34;21.20;;;12.13;;
18274;SDS011;19470;49.322;7.218;2024-01-30T08:50:00;22.58;;;12.75;;
18274;SDS011;19470;49.322;7.218;2024-01-30T08:52:30;23.08;;;13.23;;
18274;SDS011;19470;49.322;7.218;2024-01-30T08:54:57;25.33;;;14.20;;
18274;SDS011;19470;49.322;7.218;2024-01-30T08:57:24;22.48;;;13.45;;
18274;SDS011;19470;49.322;7.218;2024-01-30T08:59:53;26.35;;;15.10;;
18274;SDS011;19470;49.322;7.218;2024-01-30T09:02:21;30.73;;;15.85;;
18274;SDS011;19470;49.322;7.218;2024-01-30T09:04:47;26.45;;;15.23;;
18274;SDS011;19470;49.322;7.218;2024-01-30T09:07:14;24.88;;;14.70;;
18274;SDS011;19470;49.322;7.218;2024-01-30T09:09:41;27.88;;;14.20;;
18274;SDS011;19470;49.322;7.218;2024-01-30T09:12:07;33.25;;;18.13;;
18274;SDS011;19470;49.322;7.218;2024-01-30T09:14:34;26.80;;;14.77;;
18274;SDS011;19470;49.322;7.218;2024-01-30T09:17:01;26.30;;;13.70;;
18274;SDS011;19470;49.322;7.218;2024-01-30T09:19:31;24.98;;;13.77;;
18274;SDS011;19470;49.322;7.218;2024-01-30T09:21:57;21.55;;;14.30;;
18274;SDS011;19470;49.322;7.218;2024-01-30T09:24:24;22.75;;;13.68;;
18274;SDS011;19470;49.322;7.218;2024-01-30T09:26:51;24.15;;;13.77;;
18274;SDS011;19470;49.322;7.218;2024-01-30T09:29:18;21.40;;;13.48;;
18274;SDS011;19470;49.322;7.218;2024-01-30T09:31:47;21.13;;;13.10;;
18274;SDS011;19470;49.322;7.218;2024-01-30T09:34:13;22.58;;;13.88;;
18274;SDS011;19470;49.322;7.218;2024-01-30T09:36:41;17.80;;;9.48;;
18274;SDS011;19470;49.322;7.218;2024-01-30T09:39:07;12.95;;;7.60;;
18274;SDS011;19470;49.322;7.218;2024-01-30T09:41:35;9.43;;;5.65;;
18274;SDS011;19470;49.322;7.218;2024-01-30T09:44:12;14.18;;;8.60;;
18274;SDS011;19470;49.322;7.218;2024-01-30T09:46:50;18.48;;;8.68;;
18274;SDS011;19470;49.322;7.218;2024-01-30T09:49:40;20.55;;;11.52;;
18274;SDS011;19470;49.322;7.218;2024-01-30T09:52:40;12.30;;;6.90;;
18274;SDS011;19470;49.322;7.218;2024-01-30T09:55:35;11.13;;;6.40;;
18274;SDS011;19470;49.322;7.218;2024-01-30T09:58:04;13.90;;;6.00;;
18274;SDS011;19470;49.322;7.218;2024-01-30T10:00:38;8.27;;;5.40;;
18274;SDS011;19470;49.322;7.218;2024-01-30T10:03:04;9.48;;;5.20;;
18274;SDS011;19470;49.322;7.218;2024-01-30T10:05:31;8.68;;;4.78;;
18274;SDS011;19470;49.322;7.218;2024-01-30T10:08:00;6.47;;;4.72;;
18274;SDS011;19470;49.322;7.218;2024-01-30T10:10:33;8.27;;;5.25;;
18274;SDS011;19470;49.322;7.218;2024-01-30T10:13:00;6.35;;;4.40;;
18274;SDS011;19470;49.322;7.218;2024-01-30T10:15:27;11.32;;;5.15;;
18274;SDS011;19470;49.322;7.218;2024-01-30T10:18:11;8.38;;;4.78;;
18274;SDS011;19470;49.322;7.218;2024-01-30T10:21:07;11.32;;;4.78;;
18274;SDS011;19470;49.322;7.218;2024-01-30T10:23:44;13.80;;;5.10;;
18274;SDS011;19470;49.322;7.218;2024-01-30T10:26:11;10.02;;;4.20;;
18274;SDS011;19470;49.322;7.218;2024-01-30T10:29:02;6.68;;;4.55;;
18274;SDS011;19470;49.322;7.218;2024-01-30T10:31:43;6.72;;;4.68;;
18274;SDS011;19470;49.322;7.218;2024-01-30T10:34:49;8.15;;;4.72;;
18274;SDS011;19470;49.322;7.218;2024-01-30T10:37:16;7.28;;;4.90;;
18274;SDS011;19470;49.322;7.218;2024-01-30T10:39:47;7.00;;;4.18;;
18274;SDS011;19470;49.322;7.218;2024-01-30T10:42:14;10.25;;;4.85;;
18274;SDS011;19470;49.322;7.218;2024-01-30T10:44:59;11.02;;;5.13;;
18274;SDS011;19470;49.322;7.218;2024-01-30T10:47:29;7.15;;;4.13;;
18274;SDS011;19470;49.322;7.218;2024-01-30T10:49:56;9.55;;;4.85;;
18274;SDS011;19470;49.322;7.218;2024-01-30T10:52:23;7.82;;;4.88;;
18274;SDS011;19470;49.322;7.218;2024-01-30T10:55:05;10.35;;;5.32;;
18274;SDS011;19470;49.322;7.218;2024-01-30T10:57:38;7.93;;;4.75;;
18274;SDS011;19470;49.322;7.218;2024-01-30T11:00:20;7.15;;;4.88;;
18274;SDS011;19470;49.322;7.218;2024-01-30T11:02:54;7.90;;;4.82;;
18274;SDS011;19470;49.322;7.218;2024-01-30T11:05:24;8.25;;;5.00;;
18274;SDS011;19470;49.322;7.218;2024-01-30T11:07:53;8.40;;;4.55;;
18274;SDS011;19470;49.322;7.218;2024-01-30T11:10:48;6.70;;;4.32;;
18274;SDS011;19470;49.322;7.218;2024-01-30T11:13:30;7.40;;;4.20;;
18274;SDS011;19470;49.322;7.218;2024-01-30T11:16:00;7.63;;;4.45;;
18274;SDS011;19470;49.322;7.218;2024-01-30T11:18:40;7.03;;;4.63;;
18274;SDS011;19470;49.322;7.218;2024-01-30T11:21:28;10.23;;;5.50;;
18274;SDS011;19470;49.322;7.218;2024-01-30T11:23:55;7.68;;;4.70;;
18274;SDS011;19470;49.322;7.218;2024-01-30T11:26:25;9.73;;;5.28;;
18274;SDS011;19470;49.322;7.218;2024-01-30T11:28:54;9.40;;;4.93;;
18274;SDS011;19470;49.322;7.218;2024-01-30T11:31:55;10.80;;;4.93;;
18274;SDS011;19470;49.322;7.218;2024-01-30T11:34:30;7.53;;;4.97;;
18274;SDS011;19470;49.322;7.218;2024-01-30T11:36:59;7.18;;;4.60;;
18274;SDS011;19470;49.322;7.218;2024-01-30T11:39:29;8.68;;;5.00;;
18274;SDS011;19470;49.322;7.218;2024-01-30T11:41:58;6.93;;;4.50;;
18274;SDS011;19470;49.322;7.218;2024-01-30T11:44:40;7.90;;;4.57;;
18274;SDS011;19470;49.322;7.218;2024-01-30T11:47:08;10.98;;;5.38;;
18274;SDS011;19470;49.322;7.218;2024-01-30T11:49:36;8.75;;;4.95;;
18274;SDS011;19470;49.322;7.218;2024-01-30T11:52:02;11.52;;;4.80;;
18274;SDS011;19470;49.322;7.218;2024-01-30T11:54:30;9.23;;;5.30;;
18274;SDS011;19470;49.322;7.218;2024-01-30T11:57:02;5.60;;;4.10;;
18274;SDS011;19470;49.322;7.218;2024-01-30T11:59:52;8.95;;;5.18;;
18274;SDS011;19470;49.322;7.218;2024-01-30T12:02:26;9.27;;;5.50;;
18274;SDS011;19470;49.322;7.218;2024-01-30T12:04:55;8.75;;;5.05;;
18274;SDS011;19470;49.322;7.218;2024-01-30T12:07:25;8.35;;;4.80;;
18274;SDS011;19470;49.322;7.218;2024-01-30T12:09:52;10.18;;;5.25;;
18274;SDS011;19470;49.322;7.218;2024-01-30T12:12:24;9.52;;;4.57;;
18274;SDS011;19470;49.322;7.218;2024-01-30T12:14:58;7.13;;;4.40;;
18274;SDS011;19470;49.322;7.218;2024-01-30T12:17:27;7.60;;;4.50;;
18274;SDS011;19470;49.322;7.218;2024-01-30T12:20:02;9.15;;;5.25;;
18274;SDS011;19470;49.322;7.218;2024-01-30T12:22:29;13.32;;;5.97;;
18274;SDS011;19470;49.322;7.218;2024-01-30T12:25:07;7.15;;;4.45;;
18274;SDS011;19470;49.322;7.218;2024-01-30T12:27:37;8.38;;;5.30;;
18274;SDS011;19470;49.322;7.218;2024-01-30T12:30:10;7.65;;;4.45;;
18274;SDS011;19470;49.322;7.218;2024-01-30T12:32:40;9.40;;;5.32;;
18274;SDS011;19470;49.322;7.218;2024-01-30T12:35:09;10.50;;;5.38;;
18274;SDS011;19470;49.322;7.218;2024-01-30T12:37:36;9.40;;;4.70;;
18274;SDS011;19470;49.322;7.218;2024-01-30T12:40:05;10.52;;;4.68;;
18274;SDS011;19470;49.322;7.218;2024-01-30T12:42:47;17.75;;;4.68;;
18274;SDS011;19470;49.322;7.218;2024-01-30T12:45:14;6.25;;;4.40;;
18274;SDS011;19470;49.322;7.218;2024-01-30T12:47:41;10.80;;;4.97;;
18274;SDS011;19470;49.322;7.218;2024-01-30T12:50:10;8.60;;;5.20;;
18274;SDS011;19470;49.322;7.218;2024-01-30T12:52:47;7.88;;;4.13;;
18274;SDS011;19470;49.322;7.218;2024-01-30T12:55:14;9.35;;;4.55;;
18274;SDS011;19470;49.322;7.218;2024-01-30T12:57:54;9.07;;;5.03;;
18274;SDS011;19470;49.322;7.218;2024-01-30T13:00:47;8.38;;;4.65;;
18274;SDS011;19470;49.322;7.218;2024-01-30T13:03:13;10.05;;;4.55;;
18274;SDS011;19470;49.322;7.218;2024-01-30T13:05:40;9.18;;;5.15;;
18274;SDS011;19470;49.322;7.218;2024-01-30T13:08:09;7.45;;;4.75;;
18274;SDS011;19470;49.322;7.218;2024-01-30T13:10:38;8.65;;;4.88;;
18274;SDS011;19470;49.322;7.218;2024-01-30T13:13:09;11.52;;;4.97;;
18274;SDS011;19470;49.322;7.218;2024-01-30T13:15:56;7.55;;;4.97;;
18274;SDS011;19470;49.322;7.218;2024-01-30T13:18:37;7.38;;;4.50;;
18274;SDS011;19470;49.322;7.218;2024-01-30T13:21:06;7.63;;;4.60;;
18274;SDS011;19470;49.322;7.218;2024-01-30T13:23:54;8.43;;;4.75;;
18274;SDS011;19470;49.322;7.218;2024-01-30T13:26:46;6.90;;;4.40;;
18274;SDS011;19470;49.322;7.218;2024-01-30T13:29:13;7.82;;;5.28;;
18274;SDS011;19470;49.322;7.218;2024-01-30T13:31:59;11.85;;;5.47;;
18274;SDS011;19470;49.322;7.218;2024-01-30T13:34:43;9.45;;;5.22;;
18274;SDS011;19470;49.322;7.218;2024-01-30T13:37:12;7.68;;;4.45;;
18274;SDS011;19470;49.322;7.218;2024-01-30T13:39:46;8.32;;;4.65;;
18274;SDS011;19470;49.322;7.218;2024-01-30T13:42:25;9.52;;;5.05;;
18274;SDS011;19470;49.322;7.218;2024-01-30T13:48:48;7.60;;;4.82;;
18274;SDS011;19470;49.322;7.218;2024-01-30T13:51:14;11.60;;;5.32;;
18274;SDS011;19470;49.322;7.218;2024-01-30T13:53:47;9.25;;;4.82;;
18274;SDS011;19470;49.322;7.218;2024-01-30T13:56:30;12.30;;;5.43;;
18274;SDS011;19470;49.322;7.218;2024-01-30T13:58:57;8.95;;;5.38;;
18274;SDS011;19470;49.322;7.218;2024-01-30T14:01:30;14.38;;;5.35;;
18274;SDS011;19470;49.322;7.218;2024-01-30T14:04:29;7.38;;;5.15;;
18274;SDS011;19470;49.322;7.218;2024-01-30T14:06:55;7.38;;;5.20;;
18274;SDS011;19470;49.322;7.218;2024-01-30T14:09:51;7.50;;;5.28;;
18274;SDS011;19470;49.322;7.218;2024-01-30T14:12:34;10.32;;;5.85;;
18274;SDS011;19470;49.322;7.218;2024-01-30T14:15:11;8.07;;;5.13;;
18274;SDS011;19470;49.322;7.218;2024-01-30T14:20:40;8.73;;;5.40;;
18274;SDS011;19470;49.322;7.218;2024-01-30T14:23:12;8.48;;;4.90;;
18274;SDS011;19470;49.322;7.218;2024-01-30T14:25:51;10.38;;;5.13;;
18274;SDS011;19470;49.322;7.218;2024-01-30T14:28:23;10.88;;;5.18;;
18274;SDS011;19470;49.322;7.218;2024-01-30T14:30:59;10.88;;;5.30;;
18274;SDS011;19470;49.322;7.218;2024-01-30T14:33:37;12.63;;;5.60;;
18274;SDS011;19470;49.322;7.218;2024-01-30T14:36:10;11.35;;;5.40;;
18274;SDS011;19470;49.322;7.218;2024-01-30T14:41:57;11.65;;;5.30;;
18274;SDS011;19470;49.322;7.218;2024-01-30T14:44:56;8.32;;;5.50;;
18274;SDS011;19470;49.322;7.218;2024-01-30T14:47:23;10.00;;;5.50;;
18274;SDS011;19470;49.322;7.218;2024-01-30T14:49:53;13.85;;;6.22;;
18274;SDS011;19470;49.322;7.218;2024-01-30T14:52:41;7.28;;;5.47;;
18274;SDS011;19470;49.322;7.218;2024-01-30T14:55:33;11.27;;;5.55;;
18274;SDS011;19470;49.322;7.218;2024-01-30T14:58:34;9.77;;;6.05;;
18274;SDS011;19470;49.322;7.218;2024-01-30T15:01:19;11.20;;;5.90;;
18274;SDS011;19470;49.322;7.218;2024-01-30T15:03:46;10.10;;;5.38;;
18274;SDS011;19470;49.322;7.218;2024-01-30T15:06:15;9.68;;;5.68;;
18274;SDS011;19470;49.322;7.218;2024-01-30T15:09:05;8.52;;;5.28;;
18274;SDS011;19470;49.322;7.218;2024-01-30T15:11:43;9.93;;;5.88;;